Time;durP1;ratioP1;P1;durP2;ratioP2;P2;SDS_P1;SDS_P2;PMS_P1;PMS_P2;Temp;Humidity;BMP_temperature;BMP_pressure;BME280_temperature;BME280_humidity;BME280_pressure;Samples;Min_cycle;Max_cycle;Signal;HPM_P1;HPM_P2
2023/11/20 00:01:07;;;;;;;13.40;3.83;;;10.30;99.90;;;;;;5078261;28;20469;-65
2023/11/20 00:03:34;;;;;;;15.77;4.50;;;10.30;99.90;;;;;;5078284;28;20465;-63
2023/11/20 00:06:02;;;;;;;10.13;4.17;;;10.30;99.90;;;;;;5077722;28;21039;-64
2023/11/20 00:08:29;;;;;;;11.03;5.17;;;10.30;99.90;;;;;;5078204;28;20497;-63
2023/11/20 00:10:56;;;;;;;10.57;4.00;;;10.30;99.90;;;;;;5077809;28;20458;-63
2023/11/20 00:13:24;;;;;;;10.73;3.83;;;10.40;99.90;;;;;;5078196;28;20870;-63
2023/11/20 00:15:51;;;;;;;14.90;4.13;;;10.40;99.90;;;;;;5078625;28;20461;-63
2023/11/20 00:18:20;;;;;;;9.77;4.30;;;10.30;99.90;;;;;;5078072;28;20532;-62
2023/11/20 00:20:47;;;;;;;18.80;4.60;;;10.30;99.90;;;;;;5078257;28;20504;-62
2023/11/20 00:23:15;;;;;;;10.10;4.83;;;10.30;99.90;;;;;;5077971;28;20501;-62
2023/11/20 00:25:42;;;;;;;9.60;3.80;;;10.30;99.90;;;;;;5077386;28;20461;-63
2023/11/20 00:28:09;;;;;;;17.53;5.83;;;10.30;99.90;;;;;;5077876;28;20576;-63
2023/11/20 00:30:37;;;;;;;8.70;4.53;;;10.30;99.90;;;;;;5076450;28;20469;-62
2023/11/20 00:33:04;;;;;;;10.90;3.97;;;10.30;99.90;;;;;;5077666;28;20882;-62
2023/11/20 00:35:33;;;;;;;10.93;4.43;;;10.30;99.90;;;;;;5077773;28;20885;-61
2023/11/20 00:38:00;;;;;;;8.23;3.40;;;10.30;99.90;;;;;;5078020;28;20487;-61
2023/11/20 00:40:27;;;;;;;14.00;3.57;;;10.40;99.90;;;;;;5077883;28;20462;-61
2023/11/20 00:42:54;;;;;;;13.50;4.30;;;10.40;99.90;;;;;;5077503;28;20548;-62
2023/11/20 00:45:23;;;;;;;8.10;4.00;;;10.40;99.90;;;;;;5077875;28;21018;-61
2023/11/20 00:47:50;;;;;;;7.93;3.70;;;10.30;99.90;;;;;;5077540;28;20493;-61
2023/11/20 00:50:17;;;;;;;10.03;4.23;;;10.40;99.90;;;;;;5077341;28;20556;-61
2023/11/20 00:52:46;;;;;;;16.23;4.30;;;10.40;99.90;;;;;;5077460;28;20837;-59
2023/11/20 00:55:14;;;;;;;8.30;3.90;;;10.40;99.90;;;;;;5077111;28;20555;-61
2023/11/20 00:57:41;;;;;;;10.40;3.83;;;10.40;99.90;;;;;;5077332;28;20870;-61
2023/11/20 01:00:11;;;;;;;7.90;3.87;;;10.40;99.90;;;;;;5077619;28;20462;-60
2023/11/20 01:02:38;;;;;;;11.33;4.10;;;10.40;99.90;;;;;;5077859;28;20462;-60
2023/11/20 01:05:07;;;;;;;10.70;4.40;;;10.40;99.90;;;;;;5077314;28;20458;-60
2023/11/20 01:07:35;;;;;;;7.03;3.63;;;10.40;99.90;;;;;;5076276;28;20524;-61
2023/11/20 01:10:05;;;;;;;9.43;3.70;;;10.40;99.90;;;;;;5077359;28;20461;-60
2023/11/20 01:12:32;;;;;;;9.53;4.50;;;10.40;99.90;;;;;;5076024;28;20440;-60
2023/11/20 01:14:59;;;;;;;7.00;3.17;;;10.40;99.90;;;;;;5077556;28;20522;-60
2023/11/20 01:17:27;;;;;;;11.07;3.60;;;10.40;99.90;;;;;;5077039;28;20910;-60
2023/11/20 01:19:54;;;;;;;9.47;3.93;;;10.40;99.90;;;;;;5077362;28;20725;-60
2023/11/20 01:22:21;;;;;;;10.80;3.20;;;10.40;99.90;;;;;;5077256;28;20468;-61
2023/11/20 01:24:48;;;;;;;8.10;3.37;;;10.40;99.90;;;;;;5077375;28;20900;-60
2023/11/20 01:27:17;;;;;;;8.60;4.40;;;10.40;99.90;;;;;;5076659;28;20464;-60
2023/11/20 01:29:44;;;;;;;9.13;4.83;;;10.50;99.90;;;;;;5077028;28;20461;-62
2023/11/20 01:32:11;;;;;;;8.97;3.90;;;10.50;99.90;;;;;;5077148;28;20468;-60
2023/11/20 01:34:39;;;;;;;9.40;4.73;;;10.50;99.90;;;;;;5076918;28;20453;-60
2023/11/20 01:37:09;;;;;;;11.20;3.60;;;10.50;99.90;;;;;;5077069;28;20483;-59
2023/11/20 01:39:38;;;;;;;7.60;3.60;;;10.50;99.90;;;;;;5076897;28;20479;-60
2023/11/20 01:42:06;;;;;;;7.00;2.93;;;10.50;99.90;;;;;;5077096;28;20484;-60
2023/11/20 01:44:34;;;;;;;8.93;3.07;;;10.40;99.90;;;;;;5076850;28;20457;-59
2023/11/20 01:47:02;;;;;;;6.70;3.17;;;10.40;99.90;;;;;;5076562;28;20457;-59
2023/11/20 01:49:30;;;;;;;9.10;2.97;;;10.40;99.90;;;;;;5076767;28;20496;-63
2023/11/20 01:51:58;;;;;;;8.80;3.07;;;10.40;99.90;;;;;;5077238;28;20460;-64
2023/11/20 01:54:27;;;;;;;7.33;3.00;;;10.30;99.90;;;;;;5077365;28;20458;-64
2023/11/20 01:56:54;;;;;;;7.03;2.33;;;10.30;99.90;;;;;;5076589;28;20479;-63
2023/11/20 01:59:22;;;;;;;3.67;2.47;;;10.30;99.90;;;;;;5076302;28;20454;-63
2023/11/20 02:01:51;;;;;;;5.30;2.80;;;10.30;99.90;;;;;;5076853;28;20882;-63
2023/11/20 02:04:21;;;;;;;8.83;3.13;;;10.30;99.90;;;;;;5076580;28;20461;-63
2023/11/20 02:06:48;;;;;;;5.60;3.20;;;10.20;99.90;;;;;;5076279;28;20481;-62
2023/11/20 02:09:16;;;;;;;9.17;3.23;;;10.20;99.90;;;;;;5076503;28;20581;-62
2023/11/20 02:11:44;;;;;;;7.30;3.60;;;10.20;99.90;;;;;;5076063;28;20882;-60
2023/11/20 02:14:13;;;;;;;6.87;4.10;;;10.20;99.90;;;;;;5076541;28;20549;-63
2023/11/20 02:16:40;;;;;;;8.50;3.90;;;10.20;99.90;;;;;;5076801;28;20819;-65
2023/11/20 02:19:15;;;;;;;9.23;4.40;;;10.20;99.90;;;;;;5079348;28;20465;-62
2023/11/20 02:21:44;;;;;;;13.13;4.70;;;10.20;99.90;;;;;;5080095;28;20456;-62
2023/11/20 02:24:12;;;;;;;10.20;4.53;;;10.30;99.90;;;;;;5080705;28;20874;-61
2023/11/20 02:26:53;;;;;;;9.57;4.80;;;10.20;99.90;;;;;;5080453;28;20548;-61
2023/11/20 02:29:29;;;;;;;9.60;4.70;;;10.20;99.90;;;;;;5079844;28;20495;-61
2023/11/20 02:31:58;;;;;;;9.73;4.63;;;10.30;99.90;;;;;;5079985;28;20457;-61
2023/11/20 02:34:25;;;;;;;14.30;5.20;;;10.20;99.90;;;;;;5080644;28;20432;-61
2023/11/20 02:36:52;;;;;;;12.73;5.20;;;10.30;99.90;;;;;;5080330;28;20552;-61
2023/11/20 02:39:20;;;;;;;10.17;4.60;;;10.20;99.90;;;;;;5079792;28;20460;-61
2023/11/20 02:41:47;;;;;;;10.40;4.87;;;10.20;99.90;;;;;;5079707;28;20457;-61
2023/11/20 02:44:15;;;;;;;16.00;4.77;;;10.20;99.90;;;;;;5080033;28;20493;-61
2023/11/20 02:46:43;;;;;;;11.23;4.60;;;10.30;99.90;;;;;;5079808;28;20916;-61
2023/11/20 02:49:13;;;;;;;7.30;4.43;;;10.20;99.90;;;;;;5079409;28;20528;-61
2023/11/20 02:51:42;;;;;;;13.80;5.53;;;10.20;99.90;;;;;;5079734;28;20963;-61
2023/11/20 02:54:09;;;;;;;10.93;4.40;;;10.30;99.90;;;;;;5079824;28;20514;-60
2023/11/20 02:56:36;;;;;;;7.30;4.07;;;10.20;99.90;;;;;;5079678;28;20908;-60
2023/11/20 02:59:04;;;;;;;7.60;4.40;;;10.30;99.90;;;;;;5079301;28;20988;-61
2023/11/20 03:01:31;;;;;;;13.10;4.67;;;10.20;99.90;;;;;;5079336;28;20464;-60
2023/11/20 03:03:58;;;;;;;14.53;4.97;;;10.30;99.90;;;;;;5079537;28;20556;-60
2023/11/20 03:06:27;;;;;;;10.73;4.60;;;10.20;99.90;;;;;;5079252;28;20481;-60
2023/11/20 03:08:54;;;;;;;9.47;4.70;;;10.30;99.90;;;;;;5078967;28;20489;-60
2023/11/20 03:11:21;;;;;;;8.60;3.87;;;10.30;99.90;;;;;;5079305;28;20559;-60
2023/11/20 03:13:49;;;;;;;14.93;4.10;;;10.30;99.90;;;;;;5079059;28;20465;-60
2023/11/20 03:16:16;;;;;;;10.63;4.60;;;10.30;99.90;;;;;;5079838;28;20457;-60
2023/11/20 03:18:45;;;;;;;10.70;4.50;;;10.30;99.90;;;;;;5079231;28;20439;-59
2023/11/20 03:21:12;;;;;;;8.10;4.40;;;10.30;99.90;;;;;;5079148;28;20943;-60
2023/11/20 03:23:41;;;;;;;9.47;4.33;;;10.30;99.90;;;;;;5079265;28;20457;-59
2023/11/20 03:26:09;;;;;;;11.60;5.20;;;10.30;99.90;;;;;;5079371;28;20894;-60
2023/11/20 03:28:38;;;;;;;10.73;4.53;;;10.20;99.90;;;;;;5079244;28;20500;-60
2023/11/20 03:31:05;;;;;;;13.57;4.00;;;10.30;99.90;;;;;;5078224;28;20458;-60
2023/11/20 03:33:32;;;;;;;12.67;4.80;;;10.20;99.90;;;;;;5078771;28;20463;-59
2023/11/20 03:35:59;;;;;;;10.90;4.70;;;10.20;99.90;;;;;;5079081;28;20457;-59
2023/11/20 03:38:26;;;;;;;10.53;4.83;;;10.30;99.90;;;;;;5078944;28;20557;-60
2023/11/20 03:40:55;;;;;;;11.93;5.17;;;10.30;99.90;;;;;;5079002;28;20905;-59
2023/11/20 03:43:23;;;;;;;13.27;4.93;;;10.20;99.90;;;;;;5079011;28;20865;-59
2023/11/20 03:45:51;;;;;;;12.13;4.50;;;10.30;99.90;;;;;;5078252;28;20563;-60
2023/11/20 03:48:18;;;;;;;12.53;3.90;;;10.30;99.90;;;;;;5078918;28;20489;-59
2023/11/20 03:50:45;;;;;;;10.37;4.17;;;10.30;99.90;;;;;;5078970;28;20457;-59
2023/11/20 03:53:13;;;;;;;9.10;3.80;;;10.30;99.90;;;;;;5078564;28;20857;-59
2023/11/20 03:55:40;;;;;;;8.57;3.80;;;10.30;99.90;;;;;;5078894;28;20770;-59
2023/11/20 03:58:09;;;;;;;13.03;4.60;;;10.30;99.90;;;;;;5078368;28;20468;-59
2023/11/20 04:00:36;;;;;;;8.27;4.83;;;10.30;99.90;;;;;;5078285;28;20472;-59
2023/11/20 04:03:03;;;;;;;10.00;3.67;;;10.30;99.90;;;;;;5078603;28;20457;-58
2023/11/20 04:05:30;;;;;;;23.50;6.30;;;10.30;99.90;;;;;;5078220;28;20458;-58
2023/11/20 04:07:57;;;;;;;16.70;5.27;;;10.30;99.90;;;;;;5078223;28;20795;-59
2023/11/20 04:10:25;;;;;;;19.93;4.40;;;10.30;99.90;;;;;;5078524;28;20465;-59
2023/11/20 04:12:52;;;;;;;14.07;5.53;;;10.30;99.90;;;;;;5078161;28;20453;-58
2023/11/20 04:15:21;;;;;;;11.30;4.33;;;10.30;99.90;;;;;;5076934;28;20493;-59
2023/11/20 04:17:48;;;;;;;12.33;4.20;;;10.30;99.90;;;;;;5078566;28;20531;-59
2023/11/20 04:20:15;;;;;;;12.77;5.00;;;10.30;99.90;;;;;;5078709;28;20464;-59
2023/11/20 04:22:42;;;;;;;11.20;3.97;;;10.30;99.90;;;;;;5078250;28;20469;-59
2023/11/20 04:25:10;;;;;;;11.00;3.20;;;10.30;99.90;;;;;;5077968;28;20793;-59
2023/11/20 04:27:37;;;;;;;11.50;3.83;;;10.20;99.90;;;;;;5077881;28;20461;-58
2023/11/20 04:30:06;;;;;;;11.20;3.20;;;10.30;99.90;;;;;;5077708;28;20499;-59
2023/11/20 04:32:34;;;;;;;8.50;3.40;;;10.30;99.90;;;;;;5077863;28;20819;-59
2023/11/20 04:35:02;;;;;;;12.83;3.97;;;10.30;99.90;;;;;;5077466;28;20457;-58
2023/11/20 04:37:29;;;;;;;10.07;2.70;;;10.30;99.90;;;;;;5078071;28;20555;-59
2023/11/20 04:39:56;;;;;;;13.53;4.67;;;10.20;99.90;;;;;;5077569;28;20460;-58
2023/11/20 04:42:23;;;;;;;11.00;3.47;;;10.20;99.90;;;;;;5077817;28;20464;-59
2023/11/20 04:44:50;;;;;;;9.07;3.30;;;10.20;99.90;;;;;;5077602;28;20457;-59
2023/11/20 04:47:18;;;;;;;8.70;3.27;;;10.20;99.90;;;;;;5077619;28;20503;-59
2023/11/20 04:49:46;;;;;;;7.67;3.20;;;10.20;99.90;;;;;;5077401;28;20930;-59
2023/11/20 04:52:13;;;;;;;6.73;3.60;;;10.20;99.90;;;;;;5077777;28;20468;-59
2023/11/20 04:54:41;;;;;;;9.43;4.00;;;10.20;99.90;;;;;;5077411;28;20458;-59
2023/11/20 04:57:09;;;;;;;10.77;3.93;;;10.20;99.90;;;;;;5077369;28;20864;-58
2023/11/20 04:59:36;;;;;;;9.13;4.60;;;10.20;99.90;;;;;;5077463;28;20457;-59
2023/11/20 05:02:04;;;;;;;6.87;3.70;;;10.20;99.90;;;;;;5077331;28;20457;-58
2023/11/20 05:04:31;;;;;;;10.73;4.13;;;10.10;99.90;;;;;;5077036;28;20794;-59
2023/11/20 05:06:59;;;;;;;8.03;4.00;;;10.10;99.90;;;;;;5076619;28;20485;-58
2023/11/20 05:09:27;;;;;;;8.73;3.90;;;10.20;99.90;;;;;;5075684;28;20493;-59
2023/11/20 05:11:57;;;;;;;8.97;4.10;;;10.10;99.90;;;;;;5077258;28;20477;-58
2023/11/20 05:14:24;;;;;;;6.13;3.50;;;10.20;99.90;;;;;;5076387;28;20564;-58
2023/11/20 05:16:52;;;;;;;11.00;3.53;;;10.20;99.90;;;;;;5075697;28;20436;-58
2023/11/20 05:19:19;;;;;;;5.60;3.70;;;10.20;99.90;;;;;;5076802;28;20464;-61
2023/11/20 05:21:47;;;;;;;4.70;3.10;;;10.20;99.90;;;;;;5077137;28;20468;-59
2023/11/20 05:24:16;;;;;;;10.17;3.50;;;10.20;99.90;;;;;;5077241;28;20461;-61
2023/11/20 05:26:43;;;;;;;10.63;3.60;;;10.20;99.90;;;;;;5077250;28;20476;-61
2023/11/20 05:29:12;;;;;;;5.87;3.70;;;10.20;99.90;;;;;;5076334;28;20520;-61
2023/11/20 05:31:39;;;;;;;7.63;3.50;;;10.20;99.90;;;;;;5063358;28;20544;-61
2023/11/20 05:34:06;;;;;;;10.57;4.10;;;10.20;99.90;;;;;;5057026;28;20459;-60
2023/11/20 05:36:33;;;;;;;7.63;4.50;;;10.20;99.90;;;;;;5055965;28;20462;-61
2023/11/20 05:39:01;;;;;;;8.70;4.53;;;10.20;99.90;;;;;;5057049;28;20485;-60
2023/11/20 05:41:29;;;;;;;7.83;5.07;;;10.20;99.90;;;;;;5056602;28;20497;-61
2023/11/20 05:43:57;;;;;;;12.90;4.60;;;10.20;99.90;;;;;;5057033;28;20466;-62
2023/11/20 05:46:24;;;;;;;10.60;5.83;;;10.20;99.90;;;;;;5057107;28;20776;-62
2023/11/20 05:48:51;;;;;;;13.03;6.00;;;10.10;99.90;;;;;;5066868;28;20489;-59
2023/11/20 05:51:19;;;;;;;11.30;5.37;;;10.10;99.90;;;;;;5076339;28;20547;-60
2023/11/20 05:53:46;;;;;;;12.40;6.40;;;10.10;99.90;;;;;;5078219;28;20515;-61
2023/11/20 05:56:13;;;;;;;10.33;6.00;;;10.10;99.90;;;;;;5081076;28;20457;-60
2023/11/20 05:58:42;;;;;;;13.83;5.50;;;10.10;99.90;;;;;;5081103;28;20514;-61
2023/11/20 06:01:09;;;;;;;12.87;7.13;;;10.10;99.90;;;;;;5080286;28;20493;-61
2023/11/20 06:03:36;;;;;;;15.07;6.20;;;10.10;99.90;;;;;;5080224;28;20457;-61
2023/11/20 06:06:04;;;;;;;12.20;6.67;;;10.10;99.90;;;;;;5080013;28;20560;-60
2023/11/20 06:08:32;;;;;;;8.87;5.80;;;10.00;99.90;;;;;;5080601;28;20843;-61
2023/11/20 06:10:59;;;;;;;10.33;5.70;;;10.00;99.90;;;;;;5080304;28;20961;-59
2023/11/20 06:13:26;;;;;;;22.17;6.73;;;10.00;99.90;;;;;;5079803;28;20549;-61
2023/11/20 06:15:55;;;;;;;14.97;7.03;;;10.00;99.90;;;;;;5079499;28;20464;-58
2023/11/20 06:18:22;;;;;;;14.80;7.10;;;10.00;99.90;;;;;;5079851;28;20456;-58
2023/11/20 06:20:49;;;;;;;10.53;6.17;;;10.00;99.90;;;;;;5079910;28;20459;-59
2023/11/20 06:23:18;;;;;;;12.60;5.97;;;10.00;99.90;;;;;;5079767;28;20871;-58
2023/11/20 06:25:46;;;;;;;15.73;6.73;;;10.00;99.90;;;;;;5080143;28;20579;-59
2023/11/20 06:28:13;;;;;;;15.23;6.40;;;10.00;99.90;;;;;;5079544;28;20491;-59
2023/11/20 06:30:40;;;;;;;12.23;6.60;;;10.00;99.90;;;;;;5079142;28;20492;-59
2023/11/20 06:33:09;;;;;;;11.90;5.20;;;10.00;99.90;;;;;;5079914;28;20937;-59
2023/11/20 06:35:36;;;;;;;12.80;6.10;;;10.00;99.90;;;;;;5079536;28;20941;-60
2023/11/20 06:38:04;;;;;;;18.00;6.43;;;10.00;99.90;;;;;;5079414;28;20489;-59
2023/11/20 06:40:31;;;;;;;10.93;5.17;;;10.00;99.90;;;;;;5079539;28;20467;-67
2023/11/20 06:42:58;;;;;;;14.83;5.90;;;10.00;99.90;;;;;;5079502;28;20453;-63
2023/11/20 06:45:25;;;;;;;9.43;4.90;;;10.00;99.90;;;;;;5079642;28;20815;-63
2023/11/20 06:47:53;;;;;;;10.10;4.90;;;10.00;99.90;;;;;;5079635;28;20953;-63
2023/11/20 06:50:21;;;;;;;19.90;6.43;;;9.90;99.90;;;;;;5078660;28;20929;-63
2023/11/20 06:52:49;;;;;;;11.93;4.67;;;10.00;99.90;;;;;;5079796;28;20469;-61
2023/11/20 06:55:16;;;;;;;10.53;4.73;;;9.90;99.90;;;;;;5079361;28;20461;-62
2023/11/20 06:57:44;;;;;;;11.73;5.00;;;10.00;99.90;;;;;;5079806;28;20756;-62
2023/11/20 07:00:13;;;;;;;16.70;6.77;;;9.90;99.90;;;;;;5079431;28;20464;-63
2023/11/20 07:02:40;;;;;;;17.07;4.80;;;9.90;99.90;;;;;;5079783;28;20457;-62
2023/11/20 07:05:08;;;;;;;19.53;5.90;;;9.90;99.90;;;;;;5078014;28;20586;-62
2023/11/20 07:07:41;;;;;;;19.07;5.13;;;9.90;99.90;;;;;;5079261;28;20505;-62
2023/11/20 07:10:11;;;;;;;9.80;4.60;;;10.00;99.90;;;;;;5079390;28;20497;-62
2023/11/20 07:12:40;;;;;;;11.73;4.93;;;10.00;99.90;;;;;;5079308;28;20461;-63
2023/11/20 07:15:08;;;;;;;14.40;4.80;;;10.00;99.90;;;;;;5079000;28;20871;-64
2023/11/20 07:17:36;;;;;;;12.10;4.80;;;9.90;99.90;;;;;;5078691;28;20457;-62
2023/11/20 07:20:04;;;;;;;13.73;5.57;;;9.90;99.90;;;;;;5078993;28;20461;-62
2023/11/20 07:22:31;;;;;;;14.57;5.20;;;9.90;99.90;;;;;;5079493;28;20461;-63
2023/11/20 07:25:00;;;;;;;13.20;5.93;;;10.00;99.90;;;;;;5078781;28;20458;-63
2023/11/20 07:27:27;;;;;;;16.93;5.40;;;9.90;99.90;;;;;;5078673;28;20456;-62
2023/11/20 07:29:54;;;;;;;14.70;4.87;;;9.90;99.90;;;;;;5078790;28;20950;-62
2023/11/20 07:32:21;;;;;;;12.27;5.63;;;9.90;99.90;;;;;;5079308;28;20471;-62
2023/11/20 07:34:49;;;;;;;14.10;5.20;;;10.00;99.90;;;;;;5078975;28;20454;-62
2023/11/20 07:37:17;;;;;;;14.47;5.63;;;10.00;99.90;;;;;;5078996;28;20544;-62
2023/11/20 07:39:45;;;;;;;21.07;5.90;;;10.00;99.90;;;;;;5078962;28;20449;-62
2023/11/20 07:42:14;;;;;;;18.10;5.13;;;10.00;99.90;;;;;;5078858;28;20453;-62
2023/11/20 07:44:42;;;;;;;20.10;5.47;;;10.00;99.90;;;;;;5078688;28;20453;-62
2023/11/20 07:47:10;;;;;;;19.07;5.57;;;10.00;99.90;;;;;;5078069;28;20457;-62
2023/11/20 07:49:38;;;;;;;14.17;5.73;;;10.00;99.90;;;;;;5078550;28;20533;-62
2023/11/20 07:52:09;;;;;;;12.93;5.53;;;10.00;99.90;;;;;;5078604;28;20556;-63
2023/11/20 07:54:36;;;;;;;11.37;5.57;;;10.00;99.90;;;;;;5078139;28;20766;-61
2023/11/20 07:57:04;;;;;;;17.50;5.33;;;10.00;99.90;;;;;;5076954;28;20467;-62
2023/11/20 07:59:33;;;;;;;14.43;5.60;;;9.90;99.90;;;;;;5075767;28;20464;-60
2023/11/20 08:02:00;;;;;;;17.43;4.80;;;10.00;99.90;;;;;;5076736;28;20508;-62
2023/11/20 08:04:28;;;;;;;15.40;5.20;;;9.90;99.90;;;;;;5076862;28;20536;-63
2023/11/20 08:06:55;;;;;;;13.93;5.40;;;10.00;99.90;;;;;;5076506;28;20488;-62
2023/11/20 08:09:22;;;;;;;17.53;6.70;;;10.00;99.90;;;;;;5076490;28;20462;-62
2023/11/20 08:11:49;;;;;;;11.60;5.00;;;10.00;99.90;;;;;;5075656;28;20483;-63
2023/11/20 08:14:18;;;;;;;12.63;4.30;;;10.00;99.90;;;;;;5076007;28;20945;-65
2023/11/20 08:16:47;;;;;;;18.30;6.33;;;10.00;99.90;;;;;;5075744;28;20530;-63
2023/11/20 08:19:15;;;;;;;16.97;5.27;;;10.00;99.90;;;;;;5074808;28;20460;-66
2023/11/20 08:21:43;;;;;;;16.87;5.10;;;10.00;99.90;;;;;;5075377;28;20899;-64
2023/11/20 08:24:12;;;;;;;24.50;5.77;;;10.00;99.90;;;;;;5076182;28;20552;-63
2023/11/20 08:26:40;;;;;;;12.93;5.30;;;10.00;99.90;;;;;;5077845;28;20504;-62
2023/11/20 08:29:07;;;;;;;12.53;5.03;;;10.00;99.90;;;;;;5076726;28;20744;-62
2023/11/20 08:31:36;;;;;;;14.77;4.40;;;10.00;99.90;;;;;;5076846;28;20504;-62
2023/11/20 08:34:05;;;;;;;14.17;5.87;;;10.10;99.90;;;;;;5076294;28;20457;-61
2023/11/20 08:36:32;;;;;;;18.70;6.70;;;10.10;99.90;;;;;;5078260;28;20457;-62
2023/11/20 08:39:00;;;;;;;17.30;5.93;;;10.10;99.90;;;;;;5077406;28;20848;-61
2023/11/20 08:41:29;;;;;;;14.37;5.17;;;10.10;99.90;;;;;;5077875;28;20453;-62
2023/11/20 08:43:57;;;;;;;13.17;4.80;;;10.10;99.90;;;;;;5077188;28;20551;-62
2023/11/20 08:46:24;;;;;;;10.57;5.70;;;10.10;99.90;;;;;;5077804;28;20564;-62
2023/11/20 08:48:52;;;;;;;15.70;4.00;;;10.10;99.90;;;;;;5077624;28;20455;-61
2023/11/20 08:51:20;;;;;;;14.83;5.10;;;10.00;99.90;;;;;;5077193;28;20495;-61
2023/11/20 08:53:48;;;;;;;18.30;5.63;;;10.10;99.90;;;;;;5077307;28;20534;-62
2023/11/20 08:56:15;;;;;;;13.20;5.17;;;10.20;99.90;;;;;;5077347;28;20476;-61
2023/11/20 08:58:42;;;;;;;18.17;6.10;;;10.20;99.90;;;;;;5077629;28;20464;-62
2023/11/20 09:01:10;;;;;;;18.50;5.47;;;10.20;99.90;;;;;;5077482;28;20511;-61
2023/11/20 09:03:38;;;;;;;14.93;4.80;;;10.20;99.90;;;;;;5077111;28;20463;-61
2023/11/20 09:06:06;;;;;;;12.70;4.27;;;10.20;99.90;;;;;;5077297;28;20473;-60
2023/11/20 09:08:35;;;;;;;10.60;4.47;;;10.20;99.90;;;;;;5077729;28;20457;-61
2023/11/20 09:11:03;;;;;;;11.90;4.50;;;10.20;99.90;;;;;;5076856;28;20886;-61
2023/11/20 09:13:30;;;;;;;13.30;4.53;;;10.10;99.90;;;;;;5077271;28;20466;-61
2023/11/20 09:15:59;;;;;;;18.97;5.10;;;10.10;99.90;;;;;;5077266;28;20457;-62
2023/11/20 09:18:26;;;;;;;11.73;4.80;;;10.10;99.90;;;;;;5077723;28;20461;-61
2023/11/20 09:20:54;;;;;;;8.97;3.80;;;10.10;99.90;;;;;;5076638;28;20500;-62
2023/11/20 09:23:22;;;;;;;12.37;4.10;;;10.10;99.90;;;;;;5076800;28;20730;-61
2023/11/20 09:25:51;;;;;;;16.23;4.70;;;10.20;99.90;;;;;;5076926;28;20458;-61
2023/11/20 09:28:18;;;;;;;17.90;4.87;;;10.20;99.90;;;;;;5075710;28;20576;-61
2023/11/20 09:30:45;;;;;;;15.87;4.87;;;10.20;99.90;;;;;;5076000;28;20488;-61
2023/11/20 09:33:12;;;;;;;13.70;4.30;;;10.20;99.90;;;;;;5076828;28;20457;-62
2023/11/20 09:35:40;;;;;;;10.13;4.50;;;10.20;99.90;;;;;;5077199;28;20885;-61
2023/11/20 09:38:07;;;;;;;10.60;4.20;;;10.30;99.90;;;;;;5076624;28;20507;-61
2023/11/20 09:40:35;;;;;;;16.60;5.20;;;10.40;99.90;;;;;;5075646;28;20575;-61
2023/11/20 09:43:04;;;;;;;14.17;4.67;;;10.40;99.90;;;;;;5076477;28;20460;-61
2023/11/20 09:45:34;;;;;;;14.03;4.70;;;10.40;99.90;;;;;;5076240;28;20465;-62
2023/11/20 09:48:03;;;;;;;11.57;3.40;;;10.40;99.90;;;;;;5076482;28;20765;-61
2023/11/20 09:50:30;;;;;;;13.10;4.37;;;10.40;99.90;;;;;;5076278;28;20493;-61
2023/11/20 09:52:58;;;;;;;11.80;4.10;;;10.30;99.90;;;;;;5075686;28;20463;-61
2023/11/20 09:55:26;;;;;;;8.17;3.70;;;10.30;99.90;;;;;;5075933;28;20457;-62
2023/11/20 09:57:54;;;;;;;11.70;4.40;;;10.30;99.90;;;;;;5075652;28;20467;-62
2023/11/20 10:00:23;;;;;;;13.40;4.40;;;10.30;99.90;;;;;;5076309;28;20457;-62
2023/11/20 10:02:50;;;;;;;12.60;4.10;;;10.30;99.90;;;;;;5076917;28;20487;-63
2023/11/20 10:05:23;;;;;;;11.63;4.37;;;10.30;99.90;;;;;;5076370;28;20560;-63
2023/11/20 10:07:51;;;;;;;8.20;3.00;;;10.30;99.90;;;;;;5075871;28;20481;-63
2023/11/20 10:10:20;;;;;;;10.00;3.90;;;10.40;99.90;;;;;;5076286;28;20493;-62
2023/11/20 10:12:49;;;;;;;6.87;3.40;;;10.30;99.90;;;;;;5076856;28;20461;-62
2023/11/20 10:15:19;;;;;;;9.43;3.93;;;10.30;99.90;;;;;;5076606;28;20454;-62
2023/11/20 10:17:48;;;;;;;10.13;3.77;;;10.20;99.90;;;;;;5076495;28;20465;-62
2023/11/20 10:20:16;;;;;;;10.10;3.57;;;10.20;99.90;;;;;;5076592;28;20759;-67
2023/11/20 10:22:44;;;;;;;8.30;4.03;;;10.20;99.90;;;;;;5058156;28;20541;-65
2023/11/20 10:25:11;;;;;;;10.80;3.93;;;10.10;99.90;;;;;;5076126;28;20453;-62
2023/11/20 10:27:39;;;;;;;11.93;3.90;;;10.20;99.90;;;;;;5076249;28;20485;-62
2023/11/20 10:30:09;;;;;;;11.60;4.30;;;10.20;99.90;;;;;;5075927;28;20532;-62
2023/11/20 10:32:37;;;;;;;11.20;4.10;;;10.30;99.90;;;;;;5076374;28;20461;-61
2023/11/20 10:35:15;;;;;;;8.80;4.17;;;10.30;99.90;;;;;;5074377;28;20544;-62
2023/11/20 10:37:53;;;;;;;10.70;4.33;;;10.40;99.90;;;;;;5074295;28;20463;-62
2023/11/20 10:40:21;;;;;;;8.80;4.00;;;10.50;99.90;;;;;;5077626;28;20524;-64
2023/11/20 10:42:49;;;;;;;10.53;4.20;;;10.50;99.90;;;;;;5078474;28;20465;-62
2023/11/20 10:45:16;;;;;;;9.00;4.33;;;10.80;99.90;;;;;;5078130;28;20464;-66
2023/11/20 10:47:45;;;;;;;9.23;3.80;;;10.80;99.90;;;;;;5078460;28;20550;-64
2023/11/20 10:50:16;;;;;;;6.93;3.60;;;10.80;99.90;;;;;;5079847;28;20543;-63
2023/11/20 10:52:46;;;;;;;10.77;4.27;;;11.10;99.90;;;;;;5080314;28;20468;-66
2023/11/20 10:55:14;;;;;;;8.47;3.57;;;11.50;99.90;;;;;;5079662;28;20462;-64
2023/11/20 10:57:42;;;;;;;9.40;3.90;;;11.70;99.90;;;;;;5078406;28;20832;-65
2023/11/20 11:00:11;;;;;;;8.27;2.80;;;11.70;99.90;;;;;;5076735;28;20474;-64
2023/11/20 11:02:41;;;;;;;8.87;3.40;;;12.00;99.90;;;;;;5078959;28;20468;-64
2023/11/20 11:05:10;;;;;;;9.07;3.30;;;12.20;99.90;;;;;;5071883;28;21174;-64
2023/11/20 11:07:41;;;;;;;5.90;3.20;;;12.50;99.90;;;;;;5078324;28;20591;-64
2023/11/20 11:10:10;;;;;;;7.13;3.50;;;12.80;99.90;;;;;;5078822;28;20544;-65
2023/11/20 11:12:42;;;;;;;7.97;3.60;;;13.00;99.90;;;;;;5078508;28;20488;-72
2023/11/20 11:15:13;;;;;;;8.90;2.90;;;12.90;1.00;;;;;;5078644;28;20461;-64
2023/11/20 11:17:47;;;;;;;11.47;4.13;;;12.60;1.00;;;;;;5078964;28;20465;-65
2023/11/20 11:20:22;;;;;;;6.93;3.00;;;12.60;99.90;;;;;;5079501;28;20456;-64
2023/11/20 11:22:57;;;;;;;9.50;3.77;;;12.20;99.90;;;;;;5079418;28;20893;-66
2023/11/20 11:25:28;;;;;;;6.43;3.27;;;11.90;99.90;;;;;;5078940;28;20457;-64
2023/11/20 11:27:57;;;;;;;12.00;3.10;;;11.50;99.90;;;;;;5076232;28;20465;-65
2023/11/20 11:30:27;;;;;;;11.23;3.33;;;11.30;99.90;;;;;;5075545;28;20800;-64
2023/11/20 11:33:38;;;;;;;7.37;3.20;;;11.20;99.90;;;;;;5078844;28;20501;-64
2023/11/20 11:36:24;;;;;;;9.17;2.90;;;11.20;1.00;;;;;;5069313;28;20469;-65
2023/11/20 11:39:13;;;;;;;9.10;3.30;;;11.00;1.00;;;;;;5074505;28;20467;-63
2023/11/20 11:42:07;;;;;;;5.63;3.23;;;11.00;1.00;;;;;;5075295;28;20500;-62
2023/11/20 11:44:56;;;;;;;6.20;3.00;;;11.10;99.90;;;;;;5074271;28;20843;-62
2023/11/20 11:47:23;;;;;;;6.07;2.50;;;11.10;1.00;;;;;;5078082;28;20826;-62
2023/11/20 11:49:51;;;;;;;6.80;3.03;;;10.90;1.00;;;;;;5077228;28;20501;-62
2023/11/20 11:52:27;;;;;;;6.03;2.93;;;11.00;1.00;;;;;;5066539;28;20493;-62
2023/11/20 11:55:24;;;;;;;10.63;3.40;;;11.10;35.10;;;;;;5077464;28;20523;-62
2023/11/20 11:57:57;;;;;;;5.37;2.83;;;11.10;1.00;;;;;;5077205;28;20912;-63
2023/11/20 12:00:26;;;;;;;8.43;3.20;;;11.00;32.80;;;;;;5078101;28;20762;-64
2023/11/20 12:02:56;;;;;;;7.40;3.30;;;11.10;99.90;;;;;;5076136;28;20465;-63
2023/11/20 12:05:24;;;;;;;5.93;2.50;;;11.10;99.90;;;;;;5077297;28;20458;-62
2023/11/20 12:07:57;;;;;;;8.33;2.80;;;11.20;99.90;;;;;;5076782;28;20527;-62
2023/11/20 12:10:42;;;;;;;6.73;2.53;;;11.30;99.90;;;;;;5077466;28;20481;-65
2023/11/20 12:13:11;;;;;;;9.50;4.13;;;11.30;1.00;;;;;;5075434;28;20572;-62
2023/11/20 12:15:39;;;;;;;7.40;2.97;;;11.30;1.00;;;;;;5076214;28;20468;-60
2023/11/20 12:18:10;;;;;;;6.40;2.50;;;11.30;1.00;;;;;;5076443;28;20489;-60
2023/11/20 12:20:38;;;;;;;6.37;2.80;;;11.30;1.00;;;;;;5077912;28;20551;-60
2023/11/20 12:23:08;;;;;;;9.03;2.87;;;11.20;99.90;;;;;;5075008;28;20469;-60
2023/11/20 12:25:40;;;;;;;4.80;2.43;;;11.30;1.00;;;;;;5077119;28;20771;-60
2023/11/20 12:28:10;;;;;;;9.40;2.50;;;11.30;99.90;;;;;;5076583;28;20468;-61
2023/11/20 12:30:37;;;;;;;4.97;2.73;;;11.50;1.00;;;;;;5078202;28;20455;-60
2023/11/20 12:33:06;;;;;;;3.70;2.00;;;11.50;1.00;;;;;;5077624;28;20465;-60
2023/11/20 12:35:33;;;;;;;4.43;2.33;;;11.50;99.90;;;;;;5075862;28;20472;-60
2023/11/20 12:38:01;;;;;;;5.13;1.93;;;11.30;99.90;;;;;;5072985;28;20495;-60
2023/11/20 12:40:29;;;;;;;6.47;2.60;;;11.40;99.90;;;;;;5076418;28;20581;-60
2023/11/20 12:42:57;;;;;;;4.60;2.23;;;11.30;99.90;;;;;;5075693;28;20492;-60
2023/11/20 12:45:25;;;;;;;6.73;2.37;;;11.20;99.90;;;;;;5076150;28;20461;-60
2023/11/20 12:47:53;;;;;;;5.07;2.40;;;11.20;99.90;;;;;;5076344;28;20467;-60